Time;durP1;ratioP1;P1;durP2;ratioP2;P2;SDS_P1;SDS_P2;PMS_P1;PMS_P2;Temp;Humidity;BMP_temperature;BMP_pressure;BME280_temperature;BME280_humidity;BME280_pressure;Samples;Min_cycle;Max_cycle;Signal;HPM_P1;HPM_P2
2022/12/18 00:01:19;;;;;;;27.45;13.55;;;-0.40;99.90;;;;;;5059291;28;20463;-77
2022/12/18 00:03:45;;;;;;;33.13;12.50;;;-0.50;99.90;;;;;;5082691;28;20035;-77
2022/12/18 00:06:13;;;;;;;28.17;11.52;;;-0.60;99.90;;;;;;5084461;28;20536;-76
2022/12/18 00:08:39;;;;;;;25.73;12.15;;;-0.60;99.90;;;;;;5082117;28;20082;-76
2022/12/18 00:11:11;;;;;;;23.38;11.02;;;-0.70;99.90;;;;;;5083569;28;20125;-77
2022/12/18 00:13:37;;;;;;;28.38;11.48;;;-0.70;99.90;;;;;;5083621;28;20392;-77
2022/12/18 00:16:05;;;;;;;22.88;11.63;;;-0.70;99.90;;;;;;5085720;28;20036;-78
2022/12/18 00:18:32;;;;;;;29.40;12.05;;;-0.70;99.90;;;;;;5059405;28;20133;-77
2022/12/18 00:21:02;;;;;;;24.75;11.05;;;-0.90;99.90;;;;;;5085825;28;20070;-76
2022/12/18 00:23:29;;;;;;;27.67;12.38;;;-0.90;99.90;;;;;;5088593;28;20050;-77
2022/12/18 00:25:58;;;;;;;25.80;11.77;;;-0.90;99.90;;;;;;5084008;28;20020;-76
2022/12/18 00:28:24;;;;;;;26.27;12.13;;;-0.80;99.90;;;;;;5090070;28;20115;-76
2022/12/18 00:30:51;;;;;;;23.67;11.75;;;-0.80;99.90;;;;;;5082073;28;20052;-76
2022/12/18 00:33:17;;;;;;;27.48;11.73;;;-0.80;99.90;;;;;;5087158;28;20086;-77
2022/12/18 00:35:43;;;;;;;24.27;11.77;;;-0.70;99.90;;;;;;5087600;28;20077;-76
2022/12/18 00:38:08;;;;;;;26.10;10.93;;;-0.80;99.90;;;;;;5077063;28;20033;-77
2022/12/18 00:40:34;;;;;;;21.88;9.85;;;-0.80;99.90;;;;;;5080651;28;20051;-77
2022/12/18 00:43:00;;;;;;;21.73;10.63;;;-0.80;99.90;;;;;;5070123;28;20078;-77
2022/12/18 00:45:28;;;;;;;23.45;10.63;;;-0.80;99.90;;;;;;5069691;28;20048;-75
2022/12/18 00:47:54;;;;;;;21.08;9.55;;;-0.80;99.90;;;;;;5062643;28;20078;-76
2022/12/18 00:50:20;;;;;;;21.50;9.55;;;-0.70;99.90;;;;;;5068836;28;20426;-77
2022/12/18 00:52:46;;;;;;;23.88;10.30;;;-0.80;99.90;;;;;;5050503;28;20476;-76
2022/12/18 00:55:13;;;;;;;20.85;8.98;;;-0.80;99.90;;;;;;5057120;28;20060;-76
2022/12/18 00:57:39;;;;;;;23.60;9.88;;;-0.80;99.90;;;;;;5065347;28;20029;-77
2022/12/18 01:00:07;;;;;;;21.50;9.75;;;-0.70;99.90;;;;;;5066704;28;20756;-76
2022/12/18 01:02:33;;;;;;;22.48;10.40;;;-0.70;99.90;;;;;;5063744;28;20051;-76
2022/12/18 01:04:59;;;;;;;20.63;9.57;;;-0.70;99.90;;;;;;5067013;28;20468;-75
2022/12/18 01:07:24;;;;;;;20.30;8.90;;;-0.90;99.90;;;;;;5067590;28;20040;-77
2022/12/18 01:09:50;;;;;;;22.25;9.93;;;-1.00;99.90;;;;;;5058927;28;20419;-78
2022/12/18 01:12:15;;;;;;;22.55;9.90;;;-1.10;99.90;;;;;;5061922;28;20024;-76
2022/12/18 01:14:41;;;;;;;18.52;8.68;;;-1.10;99.90;;;;;;5061953;28;20021;-76
2022/12/18 01:17:07;;;;;;;22.52;8.55;;;-1.10;99.90;;;;;;5069344;28;20391;-77
2022/12/18 01:19:33;;;;;;;24.02;9.85;;;-1.00;99.90;;;;;;5073744;28;20040;-77
2022/12/18 01:21:59;;;;;;;18.33;8.30;;;-1.00;99.90;;;;;;5072135;28;20530;-77
2022/12/18 01:24:24;;;;;;;21.75;10.05;;;-1.10;99.90;;;;;;5073471;28;20391;-76
2022/12/18 01:26:50;;;;;;;20.23;9.18;;;-1.10;99.90;;;;;;5068103;28;20041;-75
2022/12/18 01:29:16;;;;;;;19.80;10.43;;;-1.20;99.90;;;;;;5066815;28;20033;-76
2022/12/18 01:31:41;;;;;;;21.88;9.10;;;-1.20;99.90;;;;;;5068769;28;20039;-77
2022/12/18 01:34:07;;;;;;;20.98;9.25;;;-1.10;99.90;;;;;;5070087;28;20397;-77
2022/12/18 01:36:38;;;;;;;21.50;9.60;;;-1.10;99.90;;;;;;5065389;28;20037;-75
2022/12/18 01:39:14;;;;;;;30.05;10.48;;;-1.10;99.90;;;;;;5070553;28;20029;-76
2022/12/18 01:44:53;;;;;;;23.05;8.88;;;-1.00;99.90;;;;;;5072463;28;20048;-76
2022/12/18 01:48:14;;;;;;;18.23;8.40;;;-1.10;99.90;;;;;;5066476;28;20029;-76
2022/12/18 01:50:43;;;;;;;23.20;8.85;;;-1.20;99.90;;;;;;5058569;28;20076;-77
2022/12/18 01:53:14;;;;;;;16.48;8.38;;;-1.30;99.90;;;;;;5068927;28;20112;-76
2022/12/18 01:55:46;;;;;;;24.80;9.07;;;-1.30;99.90;;;;;;5057955;28;20029;-76
2022/12/18 01:58:12;;;;;;;20.52;8.32;;;-1.20;99.90;;;;;;5058695;28;21460;-76
2022/12/18 02:00:37;;;;;;;16.42;7.82;;;-1.10;99.90;;;;;;5070234;28;20074;-76
2022/12/18 02:03:03;;;;;;;17.95;8.27;;;-1.00;99.90;;;;;;5066797;28;20025;-76
2022/12/18 02:05:48;;;;;;;18.52;8.90;;;-0.90;99.90;;;;;;5068504;28;20040;-76
2022/12/18 02:08:26;;;;;;;18.23;8.85;;;-1.10;99.90;;;;;;5070531;28;20037;-75
2022/12/18 02:11:02;;;;;;;20.35;8.00;;;-1.10;99.90;;;;;;5061059;28;20508;-76
2022/12/18 02:13:37;;;;;;;14.40;7.85;;;-1.20;99.90;;;;;;5067434;28;20066;-76
2022/12/18 02:16:21;;;;;;;16.63;7.97;;;-1.10;99.90;;;;;;5063261;28;20116;-76
2022/12/18 02:18:50;;;;;;;13.98;7.13;;;-1.10;99.90;;;;;;5065768;28;20039;-76
2022/12/18 02:21:48;;;;;;;16.13;6.50;;;-1.20;99.90;;;;;;5063749;28;20021;-76
2022/12/18 02:24:27;;;;;;;19.05;7.70;;;-1.20;99.90;;;;;;5036353;28;20040;-76
2022/12/18 02:27:00;;;;;;;15.60;7.03;;;-1.10;99.90;;;;;;5064946;28;20040;-77
2022/12/18 02:29:41;;;;;;;14.20;6.85;;;-1.00;99.90;;;;;;5066865;28;20020;-77
2022/12/18 02:32:12;;;;;;;14.95;6.45;;;-0.90;99.90;;;;;;5061783;28;20035;-77
2022/12/18 02:34:39;;;;;;;13.13;6.57;;;-0.90;99.90;;;;;;5058822;28;20056;-77
2022/12/18 02:37:10;;;;;;;16.85;7.00;;;-0.80;99.90;;;;;;5072671;28;20031;-76
2022/12/18 02:39:38;;;;;;;15.23;6.68;;;-0.90;99.90;;;;;;5063380;28;20029;-76
2022/12/18 02:42:07;;;;;;;14.88;6.50;;;-1.00;99.90;;;;;;5069498;28;20025;-76
2022/12/18 02:44:44;;;;;;;13.88;6.97;;;-0.90;99.90;;;;;;5083770;28;20035;-76
2022/12/18 02:47:15;;;;;;;14.57;5.95;;;-0.80;99.90;;;;;;5091063;28;20036;-76
2022/12/18 02:50:05;;;;;;;18.02;6.93;;;-0.80;99.90;;;;;;5084232;28;20046;-76
2022/12/18 02:52:37;;;;;;;17.45;6.65;;;-0.80;99.90;;;;;;5089413;28;20052;-76
2022/12/18 02:55:06;;;;;;;15.00;5.97;;;-0.70;99.90;;;;;;5083219;28;20028;-77
2022/12/18 02:57:40;;;;;;;14.90;6.53;;;-0.80;99.90;;;;;;5086345;28;20046;-77
2022/12/18 03:00:15;;;;;;;13.63;6.25;;;-0.80;99.90;;;;;;5085018;28;20024;-77
2022/12/18 03:02:55;;;;;;;14.95;6.47;;;-0.70;99.90;;;;;;5086715;28;20024;-78
2022/12/18 03:05:31;;;;;;;12.02;5.57;;;-0.80;99.90;;;;;;5083574;28;20035;-77
2022/12/18 03:08:02;;;;;;;11.00;5.32;;;-0.70;99.90;;;;;;5077934;28;20040;-78
2022/12/18 03:10:31;;;;;;;13.80;5.38;;;-0.80;99.90;;;;;;5080357;28;20024;-76
2022/12/18 03:13:05;;;;;;;12.93;5.40;;;-0.70;99.90;;;;;;5084897;28;20040;-78
2022/12/18 03:15:40;;;;;;;15.07;6.25;;;-0.60;99.90;;;;;;5093009;28;20028;-78
2022/12/18 03:18:18;;;;;;;13.80;5.60;;;-0.60;99.90;;;;;;5091685;28;20097;-77
2022/12/18 03:20:47;;;;;;;15.57;6.38;;;-0.50;99.90;;;;;;5087264;28;20443;-77
2022/12/18 03:23:20;;;;;;;15.40;7.13;;;-0.50;99.90;;;;;;5082265;28;20032;-77
2022/12/18 03:25:47;;;;;;;10.50;5.15;;;-0.40;99.90;;;;;;5081658;28;20077;-77
2022/12/18 03:28:19;;;;;;;13.70;5.80;;;-0.50;99.90;;;;;;5087294;28;20051;-78
2022/12/18 03:30:49;;;;;;;15.80;6.18;;;-0.60;99.90;;;;;;5086903;28;20115;-77
2022/12/18 03:33:34;;;;;;;15.88;6.40;;;-0.60;99.90;;;;;;5088450;28;20028;-76
2022/12/18 03:36:00;;;;;;;14.60;6.65;;;-0.60;99.90;;;;;;5081323;28;20024;-76
2022/12/18 03:38:26;;;;;;;14.55;6.57;;;-0.60;99.90;;;;;;5087089;28;20099;-76
2022/12/18 03:41:10;;;;;;;14.27;5.90;;;-0.50;99.90;;;;;;5081150;28;20131;-77
2022/12/18 03:43:42;;;;;;;15.32;6.68;;;-0.50;99.90;;;;;;5075363;28;20036;-77
2022/12/18 03:46:24;;;;;;;12.98;6.25;;;-0.50;99.90;;;;;;5069768;28;20028;-76
2022/12/18 03:48:59;;;;;;;14.50;6.65;;;-0.60;99.90;;;;;;5065299;28;20037;-76
2022/12/18 03:51:35;;;;;;;12.00;6.32;;;-0.50;99.90;;;;;;5066704;28;20021;-77
2022/12/18 03:54:03;;;;;;;12.48;5.93;;;-0.60;99.90;;;;;;5060625;28;20021;-77
2022/12/18 03:56:33;;;;;;;15.93;6.35;;;-0.60;99.90;;;;;;5059970;28;20024;-76
2022/12/18 03:59:01;;;;;;;12.00;6.35;;;-0.70;99.90;;;;;;5061678;28;20382;-77
2022/12/18 04:01:34;;;;;;;12.93;5.50;;;-0.70;99.90;;;;;;5066942;28;20063;-76
2022/12/18 04:04:01;;;;;;;14.57;6.47;;;-0.70;99.90;;;;;;5059893;28;20074;-76
2022/12/18 04:06:28;;;;;;;15.20;6.15;;;-0.50;99.90;;;;;;5061658;28;20093;-75
2022/12/18 04:08:54;;;;;;;13.57;6.22;;;-0.40;99.90;;;;;;5060054;28;20033;-75
2022/12/18 04:11:20;;;;;;;12.10;5.90;;;-0.40;99.90;;;;;;5070087;28;20028;-75
2022/12/18 04:13:45;;;;;;;14.57;6.57;;;-0.40;99.90;;;;;;5066413;28;20035;-76
2022/12/18 04:16:11;;;;;;;13.43;6.35;;;-0.40;99.90;;;;;;5070310;28;20056;-75
2022/12/18 04:18:37;;;;;;;12.35;6.07;;;-0.30;99.90;;;;;;5070554;28;20052;-76
2022/12/18 04:21:03;;;;;;;16.40;6.93;;;-0.40;99.90;;;;;;5061041;28;20039;-76
2022/12/18 04:23:28;;;;;;;17.02;7.78;;;-0.40;99.90;;;;;;5068309;28;20021;-77
2022/12/18 04:25:54;;;;;;;13.15;7.20;;;-0.30;99.90;;;;;;5068544;28;20045;-77
2022/12/18 04:28:20;;;;;;;15.55;7.65;;;-0.20;99.90;;;;;;5069553;28;20031;-77
2022/12/18 04:30:48;;;;;;;11.30;6.07;;;-0.20;99.90;;;;;;5068237;28;20035;-77
2022/12/18 04:33:14;;;;;;;14.10;6.72;;;-0.20;99.90;;;;;;5071429;28;20055;-78
2022/12/18 04:35:43;;;;;;;18.20;6.70;;;-0.30;99.90;;;;;;5057461;28;20062;-76
2022/12/18 04:38:09;;;;;;;12.55;6.97;;;-0.40;99.90;;;;;;5068897;28;20365;-77
2022/12/18 04:40:36;;;;;;;15.02;6.75;;;-0.40;99.90;;;;;;5068060;28;20024;-75
2022/12/18 04:43:02;;;;;;;13.88;6.43;;;-0.50;99.90;;;;;;5067982;28;20044;-75
2022/12/18 04:45:29;;;;;;;12.68;5.75;;;-0.40;99.90;;;;;;5059514;28;20043;-75
2022/12/18 04:47:57;;;;;;;16.75;7.22;;;-0.30;99.90;;;;;;5067468;28;20055;-76
2022/12/18 04:50:23;;;;;;;12.55;5.78;;;-0.20;99.90;;;;;;5067961;28;20197;-76
2022/12/18 04:52:48;;;;;;;12.73;6.55;;;-0.10;99.90;;;;;;5067882;28;20085;-77
2022/12/18 04:55:14;;;;;;;9.70;5.60;;;0.00;99.90;;;;;;5068637;28;20036;-77
2022/12/18 04:57:40;;;;;;;11.40;5.93;;;-0.10;99.90;;;;;;5061117;28;20115;-77
2022/12/18 05:00:06;;;;;;;11.00;5.85;;;-0.10;99.90;;;;;;5065332;28;20032;-76
2022/12/18 05:02:32;;;;;;;9.75;5.28;;;0.00;99.90;;;;;;5070506;28;20033;-76
2022/12/18 05:04:58;;;;;;;14.75;6.88;;;0.00;99.90;;;;;;5065682;28;20032;-77
2022/12/18 05:07:23;;;;;;;11.02;5.70;;;0.00;99.90;;;;;;5068328;28;20044;-77
2022/12/18 05:09:49;;;;;;;13.35;6.32;;;0.00;99.90;;;;;;5044826;28;20037;-78
2022/12/18 05:12:15;;;;;;;12.63;5.50;;;-0.10;99.90;;;;;;5040806;28;20091;-76
2022/12/18 05:14:40;;;;;;;9.65;5.28;;;0.00;99.90;;;;;;5067445;28;20048;-78
2022/12/18 05:17:06;;;;;;;10.48;5.47;;;0.10;99.90;;;;;;5068236;28;20077;-75
2022/12/18 05:19:32;;;;;;;9.70;5.20;;;0.30;99.90;;;;;;5057601;28;20048;-77
2022/12/18 05:21:57;;;;;;;12.88;5.95;;;0.30;99.90;;;;;;5065866;28;20028;-77
2022/12/18 05:24:23;;;;;;;10.20;5.63;;;0.30;99.90;;;;;;5065132;28;20032;-76
2022/12/18 05:26:49;;;;;;;11.95;5.18;;;0.30;99.90;;;;;;5061644;28;20032;-76
2022/12/18 05:29:15;;;;;;;10.57;5.10;;;0.40;99.90;;;;;;5048562;28;20033;-77
2022/12/18 05:31:41;;;;;;;11.85;5.85;;;0.40;99.90;;;;;;5060321;28;20029;-77
2022/12/18 05:34:06;;;;;;;11.38;6.47;;;0.40;99.90;;;;;;5059854;28;20020;-77
2022/12/18 05:36:32;;;;;;;9.65;5.43;;;0.50;99.90;;;;;;5063836;28;20492;-77
2022/12/18 05:38:58;;;;;;;11.00;5.22;;;0.40;99.90;;;;;;5052709;28;21045;-75
2022/12/18 05:41:23;;;;;;;10.18;4.95;;;0.50;99.90;;;;;;5059066;28;20052;-76
2022/12/18 05:43:49;;;;;;;10.52;5.10;;;0.70;99.90;;;;;;5058385;28;20052;-76
2022/12/18 05:46:20;;;;;;;11.98;6.05;;;0.70;99.90;;;;;;5063931;28;20044;-76
2022/12/18 05:48:46;;;;;;;8.95;5.07;;;0.70;99.90;;;;;;5066162;28;20029;-76
2022/12/18 05:51:16;;;;;;;8.73;5.25;;;0.80;99.90;;;;;;5062573;28;20028;-77
2022/12/18 05:53:43;;;;;;;9.25;4.70;;;0.80;99.90;;;;;;5059959;28;20021;-77
2022/12/18 05:56:16;;;;;;;10.75;5.05;;;0.80;99.90;;;;;;5066381;28;20066;-76
2022/12/18 05:58:42;;;;;;;15.40;5.05;;;0.90;99.90;;;;;;5063591;28;20496;-77
2022/12/18 06:01:26;;;;;;;9.55;4.47;;;0.90;99.90;;;;;;5064082;28;20037;-75
2022/12/18 06:03:52;;;;;;;9.65;4.85;;;0.90;99.90;;;;;;5060886;28;20129;-76
2022/12/18 06:06:20;;;;;;;10.23;5.40;;;0.90;99.90;;;;;;5069615;28;20111;-77
2022/12/18 06:08:46;;;;;;;9.98;5.15;;;0.90;99.90;;;;;;5070191;28;20480;-77
2022/12/18 06:11:12;;;;;;;10.65;5.70;;;1.00;99.90;;;;;;5069514;28;20028;-78
2022/12/18 06:13:38;;;;;;;11.02;4.57;;;0.90;99.90;;;;;;5064273;28;20045;-77
2022/12/18 06:16:05;;;;;;;11.18;5.30;;;1.00;99.90;;;;;;5062627;28;20070;-76
2022/12/18 06:18:32;;;;;;;11.13;5.30;;;1.10;99.90;;;;;;5068223;28;20048;-75
2022/12/18 06:20:59;;;;;;;8.18;5.03;;;1.20;99.90;;;;;;5063205;28;20027;-77
2022/12/18 06:23:25;;;;;;;12.23;5.40;;;1.20;99.90;;;;;;5069032;28;20133;-76
2022/12/18 06:25:51;;;;;;;9.38;4.80;;;1.20;99.90;;;;;;5071216;28;20494;-77
2022/12/18 06:28:16;;;;;;;8.05;4.05;;;1.20;99.90;;;;;;5067365;28;20083;-76
2022/12/18 06:30:47;;;;;;;9.77;5.18;;;1.20;99.90;;;;;;5064055;28;20523;-75
2022/12/18 06:33:14;;;;;;;8.45;4.60;;;1.30;99.90;;;;;;5065244;28;20050;-77
2022/12/18 06:35:40;;;;;;;11.13;4.95;;;1.40;99.90;;;;;;5061369;28;20036;-74
2022/12/18 06:38:05;;;;;;;11.55;5.70;;;1.30;99.90;;;;;;5068078;28;20033;-77
2022/12/18 06:40:31;;;;;;;10.60;4.75;;;1.40;99.90;;;;;;5067918;28;20153;-76
2022/12/18 06:42:57;;;;;;;10.75;5.22;;;1.30;99.90;;;;;;5065904;28;20071;-76
2022/12/18 06:45:23;;;;;;;12.98;6.22;;;1.30;99.90;;;;;;5067302;28;20016;-76
2022/12/18 06:47:48;;;;;;;12.98;6.00;;;1.30;99.90;;;;;;5065062;28;20043;-76
2022/12/18 06:50:14;;;;;;;11.63;4.97;;;1.30;99.90;;;;;;5066325;28;20058;-76
2022/12/18 06:52:40;;;;;;;13.35;6.03;;;1.50;99.90;;;;;;5070313;28;20032;-76
2022/12/18 06:55:09;;;;;;;10.18;5.05;;;1.60;99.90;;;;;;5064416;28;20029;-76
2022/12/18 06:57:34;;;;;;;10.75;5.30;;;1.60;99.90;;;;;;5066479;28;20078;-77
2022/12/18 07:00:00;;;;;;;10.68;5.50;;;1.70;99.90;;;;;;5066303;28;20036;-75
2022/12/18 07:02:25;;;;;;;12.52;5.00;;;1.70;99.90;;;;;;5068475;28;20063;-76
2022/12/18 07:04:51;;;;;;;12.95;5.32;;;1.90;99.90;;;;;;5070270;28;20119;-76
2022/12/18 07:07:17;;;;;;;10.45;5.57;;;1.90;99.90;;;;;;5071738;28;20039;-76
2022/12/18 07:09:42;;;;;;;9.35;5.05;;;1.90;99.90;;;;;;5059118;28;20017;-78
2022/12/18 07:12:08;;;;;;;10.18;5.63;;;2.00;99.90;;;;;;5065921;28;20071;-77
2022/12/18 07:14:34;;;;;;;13.65;5.38;;;2.00;99.90;;;;;;5066011;28;20074;-77
2022/12/18 07:16:59;;;;;;;12.50;5.97;;;2.00;99.90;;;;;;5070009;28;20384;-76
2022/12/18 07:19:25;;;;;;;14.57;5.63;;;2.00;99.90;;;;;;5070671;28;20035;-75
2022/12/18 07:21:51;;;;;;;10.18;5.03;;;1.90;99.90;;;;;;5068665;28;20495;-76
2022/12/18 07:24:16;;;;;;;13.57;5.90;;;1.90;99.90;;;;;;5063421;28;20495;-76
2022/12/18 07:26:42;;;;;;;15.25;6.22;;;1.90;99.90;;;;;;5058754;28;20051;-76
2022/12/18 07:29:08;;;;;;;13.13;6.18;;;1.90;99.90;;;;;;5066589;28;20035;-76
2022/12/18 07:31:34;;;;;;;14.00;6.38;;;1.90;99.90;;;;;;5059119;28;20062;-76
2022/12/18 07:33:59;;;;;;;9.63;5.45;;;1.90;99.90;;;;;;5069032;28;20036;-75
2022/12/18 07:36:25;;;;;;;10.85;5.80;;;2.00;99.90;;;;;;5064424;28;20503;-76
2022/12/18 07:38:52;;;;;;;13.07;6.03;;;2.00;99.90;;;;;;5066101;28;20020;-76
2022/12/18 07:41:18;;;;;;;10.98;5.20;;;2.00;99.90;;;;;;5068135;28;20043;-77
2022/12/18 07:43:44;;;;;;;11.05;5.68;;;2.10;99.90;;;;;;5063806;28;20451;-76
2022/12/18 07:46:13;;;;;;;11.57;5.82;;;2.10;99.90;;;;;;5067962;28;20043;-77
2022/12/18 07:48:40;;;;;;;10.27;6.22;;;2.10;99.90;;;;;;5065443;28;20049;-77
2022/12/18 07:51:06;;;;;;;13.20;6.28;;;2.30;99.90;;;;;;5064772;28;20443;-77
2022/12/18 07:53:33;;;;;;;13.05;6.88;;;2.30;99.90;;;;;;5068987;28;20028;-77
2022/12/18 07:56:01;;;;;;;22.70;7.93;;;2.30;99.90;;;;;;5063994;28;21072;-80
2022/12/18 07:58:28;;;;;;;14.68;7.15;;;2.20;99.90;;;;;;5064678;28;20031;-76
2022/12/18 08:00:53;;;;;;;11.73;6.32;;;2.20;99.90;;;;;;5059385;28;20473;-79
2022/12/18 08:03:19;;;;;;;13.45;7.25;;;2.30;99.90;;;;;;5069543;28;20089;-78
2022/12/18 08:05:45;;;;;;;12.80;7.03;;;2.30;99.90;;;;;;5061133;28;20032;-78
2022/12/18 08:08:11;;;;;;;14.02;7.68;;;2.40;99.90;;;;;;5066032;28;20400;-77
2022/12/18 08:10:38;;;;;;;14.63;6.78;;;2.50;99.90;;;;;;5068670;28;20024;-77
2022/12/18 08:13:04;;;;;;;16.33;8.18;;;2.50;99.90;;;;;;5066042;28;20229;-77
2022/12/18 08:15:30;;;;;;;14.45;6.97;;;2.60;99.90;;;;;;5063461;28;20048;-79
2022/12/18 08:17:58;;;;;;;14.32;6.82;;;2.60;99.90;;;;;;5057993;28;20530;-79
2022/12/18 08:20:24;;;;;;;16.35;7.65;;;2.60;99.90;;;;;;5068544;28;20079;-78
2022/12/18 08:22:50;;;;;;;15.68;7.90;;;2.60;99.90;;;;;;5066976;28;20033;-78
2022/12/18 08:25:15;;;;;;;15.98;7.28;;;2.60;99.90;;;;;;5056959;28;20082;-79
2022/12/18 08:27:41;;;;;;;18.98;8.05;;;2.50;99.90;;;;;;5054656;28;20091;-78
2022/12/18 08:30:07;;;;;;;13.20;8.07;;;2.50;99.90;;;;;;5069786;28;20031;-79
2022/12/18 08:32:33;;;;;;;15.65;8.18;;;2.60;99.90;;;;;;5067411;28;20036;-77
2022/12/18 08:34:59;;;;;;;14.13;8.13;;;2.60;99.90;;;;;;5070500;28;20249;-79
2022/12/18 08:37:25;;;;;;;19.17;9.30;;;2.60;99.90;;;;;;5067254;28;20024;-78
2022/12/18 08:39:50;;;;;;;19.23;9.18;;;2.60;99.90;;;;;;5063856;28;20029;-78
2022/12/18 08:45:01;;;;;;;15.07;8.35;;;2.70;99.90;;;;;;5070869;28;20533;-79
2022/12/18 08:47:27;;;;;;;16.40;10.00;;;2.60;99.90;;;;;;5074243;28;20082;-79
2022/12/18 08:49:52;;;;;;;14.05;8.23;;;2.60;99.90;;;;;;5060033;28;20029;-79
2022/12/18 08:52:18;;;;;;;13.98;8.25;;;2.70;99.90;;;;;;5072764;28;20025;-80
2022/12/18 08:54:43;;;;;;;18.27;8.65;;;2.70;99.90;;;;;;5071302;28;20051;-80
2022/12/18 08:57:09;;;;;;;18.02;9.23;;;2.70;99.90;;;;;;5072681;28;20423;-79
2022/12/18 08:59:35;;;;;;;15.57;8.35;;;2.70;99.90;;;;;;5073737;28;20063;-79
2022/12/18 09:02:00;;;;;;;20.13;8.50;;;2.80;99.90;;;;;;5075102;28;20024;-79
2022/12/18 09:04:26;;;;;;;18.85;9.43;;;2.80;99.90;;;;;;5085830;28;20037;-80
2022/12/18 09:06:56;;;;;;;15.10;7.75;;;2.80;99.90;;;;;;5084503;28;20040;-79
2022/12/18 09:09:22;;;;;;;17.17;8.40;;;2.80;99.90;;;;;;5068675;28;20048;-79
2022/12/18 09:11:47;;;;;;;16.55;8.65;;;2.80;99.90;;;;;;5080160;28;20040;-81
2022/12/18 09:14:13;;;;;;;18.58;9.52;;;2.90;99.90;;;;;;5072446;28;20036;-79
2022/12/18 09:16:39;;;;;;;15.40;8.20;;;2.90;99.90;;;;;;5065767;28;20032;-80
2022/12/18 09:19:05;;;;;;;18.05;9.65;;;2.90;99.90;;;;;;5070282;28;20092;-78
2022/12/18 09:21:34;;;;;;;17.45;8.90;;;3.00;99.90;;;;;;5076693;28;20028;-78
2022/12/18 09:24:00;;;;;;;20.98;9.40;;;3.00;99.90;;;;;;5072617;28;20050;-78
2022/12/18 09:26:26;;;;;;;18.20;9.32;;;3.10;99.90;;;;;;5056292;28;20040;-78
2022/12/18 09:28:53;;;;;;;19.65;9.88;;;3.10;99.90;;;;;;5071298;28;20722;-78
2022/12/18 09:31:20;;;;;;;15.18;9.07;;;3.20;99.90;;;;;;5071900;28;20485;-77
2022/12/18 09:33:46;;;;;;;17.15;9.45;;;3.30;99.90;;;;;;5069985;28;20503;-77
2022/12/18 09:36:15;;;;;;;18.52;9.45;;;3.40;99.90;;;;;;5073926;28;20056;-77
2022/12/18 09:38:40;;;;;;;21.30;9.20;;;3.50;99.90;;;;;;5070574;28;20073;-77
2022/12/18 09:41:21;;;;;;;19.90;9.90;;;3.50;99.90;;;;;;5070487;28;20021;-78
2022/12/18 09:43:51;;;;;;;18.83;9.55;;;3.50;99.90;;;;;;5066363;28;20036;-78
2022/12/18 09:46:30;;;;;;;17.55;9.45;;;3.50;99.90;;;;;;5071998;28;20044;-78
2022/12/18 09:48:59;;;;;;;18.00;9.48;;;3.60;99.90;;;;;;5090563;28;20498;-77
2022/12/18 09:51:32;;;;;;;16.30;8.80;;;3.60;99.90;;;;;;5089562;28;20028;-78
2022/12/18 09:54:06;;;;;;;17.67;8.65;;;3.60;99.90;;;;;;5085887;28;20025;-78
2022/12/18 09:56:39;;;;;;;19.20;10.38;;;3.70;99.90;;;;;;5083894;28;20440;-78
2022/12/18 09:59:05;;;;;;;25.23;9.90;;;3.70;99.90;;;;;;5091379;28;20030;-77
2022/12/18 10:01:32;;;;;;;20.40;10.70;;;3.80;99.90;;;;;;5091702;28;20060;-77
2022/12/18 10:03:59;;;;;;;18.17;11.05;;;3.70;99.90;;;;;;5086879;28;20055;-77
2022/12/18 10:06:35;;;;;;;21.30;10.75;;;3.80;99.90;;;;;;5090720;28;20032;-78
2022/12/18 10:09:17;;;;;;;19.60;10.23;;;3.80;99.90;;;;;;5069894;28;20467;-78
2022/12/18 10:12:03;;;;;;;20.08;9.93;;;3.80;99.90;;;;;;5090738;28;20975;-79
2022/12/18 10:14:45;;;;;;;18.20;10.25;;;3.90;99.90;;;;;;5089259;28;20050;-79
2022/12/18 10:17:16;;;;;;;;;;;3.90;99.90;;;;;;5085040;28;20112;-79
2022/12/18 10:20:04;;;;;;;15.80;9.32;;;3.90;99.90;;;;;;5076852;28;20328;-78
2022/12/18 10:22:53;;;;;;;21.65;11.45;;;4.00;99.90;;;;;;5069575;28;20381;-79
2022/12/18 10:25:22;;;;;;;17.00;9.60;;;4.00;99.90;;;;;;5082341;28;20484;-80
2022/12/18 10:27:48;;;;;;;18.33;9.75;;;4.00;99.90;;;;;;5082214;28;20036;-80
2022/12/18 10:30:16;;;;;;;16.40;9.50;;;4.10;99.90;;;;;;5092990;28;20074;-79
2022/12/18 10:32:42;;;;;;;18.02;9.82;;;4.10;99.90;;;;;;5086437;28;20063;-81
2022/12/18 10:35:16;;;;;;;17.42;9.45;;;4.10;99.90;;;;;;5092125;28;20059;-79
2022/12/18 10:38:02;;;;;;;15.25;8.93;;;4.10;99.90;;;;;;5064877;28;20036;-79
2022/12/18 10:40:28;;;;;;;13.77;8.32;;;4.20;99.90;;;;;;5081894;28;20470;-74
2022/12/18 10:43:12;;;;;;;17.88;9.15;;;4.10;99.90;;;;;;5083337;28;20052;-78
2022/12/18 10:45:37;;;;;;;17.63;9.40;;;4.20;99.90;;;;;;5068963;28;20031;-79
2022/12/18 10:48:03;;;;;;;17.60;9.00;;;4.20;99.90;;;;;;5065198;28;20028;-80
2022/12/18 10:50:33;;;;;;;17.45;9.65;;;4.20;99.90;;;;;;5072109;28;20025;-73
2022/12/18 10:53:02;;;;;;;19.13;10.98;;;4.30;99.90;;;;;;5060568;28;20025;-75
2022/12/18 10:55:34;;;;;;;16.15;9.40;;;4.20;99.90;;;;;;5056256;28;20028;-75
2022/12/18 10:58:29;;;;;;;18.42;9.77;;;4.20;99.90;;;;;;5062428;28;20460;-79
2022/12/18 11:01:16;;;;;;;16.73;8.98;;;4.20;99.90;;;;;;5062454;28;20577;-79
2022/12/18 11:03:44;;;;;;;20.25;9.52;;;4.10;99.90;;;;;;5065914;28;20037;-75
2022/12/18 11:06:16;;;;;;;17.10;9.63;;;4.10;99.90;;;;;;5060820;28;20484;-77
2022/12/18 11:08:56;;;;;;;16.85;9.82;;;4.10;99.90;;;;;;5062195;28;20033;-77
2022/12/18 11:11:23;;;;;;;23.05;10.32;;;4.10;99.90;;;;;;5060036;28;20033;-78
2022/12/18 11:14:05;;;;;;;19.05;9.73;;;4.00;99.90;;;;;;5061896;28;20389;-77
2022/12/18 11:16:44;;;;;;;17.05;8.02;;;4.00;99.90;;;;;;5059656;28;20033;-77
2022/12/18 11:19:30;;;;;;;22.58;10.15;;;4.00;99.90;;;;;;5041421;28;20481;-77
2022/12/18 11:21:56;;;;;;;28.60;10.75;;;4.00;99.90;;;;;;5038949;28;20571;-78
2022/12/18 11:24:33;;;;;;;21.75;9.88;;;4.00;99.90;;;;;;5062876;28;20415;-77
2022/12/18 11:27:03;;;;;;;24.40;10.65;;;4.00;99.90;;;;;;5064335;28;20036;-75
2022/12/18 11:29:36;;;;;;;28.00;10.95;;;4.00;99.90;;;;;;5058919;28;20029;-76
2022/12/18 11:32:24;;;;;;;25.90;9.95;;;4.00;99.90;;;;;;5067458;28;20028;-81
2022/12/18 11:34:55;;;;;;;26.02;10.70;;;4.00;99.90;;;;;;5062005;28;20036;-80
2022/12/18 11:37:21;;;;;;;34.53;11.07;;;4.10;99.90;;;;;;5058813;28;20043;-81
2022/12/18 11:39:57;;;;;;;33.13;11.13;;;4.00;99.90;;;;;;5060355;28;20033;-80
2022/12/18 11:42:48;;;;;;;29.88;11.82;;;4.10;99.90;;;;;;5074761;28;20036;-80
2022/12/18 11:45:13;;;;;;;28.25;10.65;;;4.00;99.90;;;;;;5088187;28;20493;-81
2022/12/18 11:47:44;;;;;;;38.88;12.80;;;4.10;99.90;;;;;;5090121;28;20043;-82
2022/12/18 11:50:25;;;;;;;40.22;12.68;;;4.10;99.90;;;;;;5081282;28;20443;-81
2022/12/18 11:52:51;;;;;;;49.13;13.07;;;4.10;99.90;;;;;;5083847;28;20019;-79
2022/12/18 11:55:23;;;;;;;29.73;11.25;;;4.20;99.90;;;;;;5084545;28;20437;-81
2022/12/18 11:58:14;;;;;;;39.42;13.30;;;4.20;99.90;;;;;;5081821;28;20077;-76
2022/12/18 12:01:23;;;;;;;24.55;10.80;;;4.20;99.90;;;;;;5086558;28;20398;-78
2022/12/18 12:04:14;;;;;;;24.95;10.70;;;4.20;99.90;;;;;;5052470;28;20093;-76
2022/12/18 12:07:07;;;;;;;23.45;10.75;;;4.30;99.90;;;;;;5082147;28;20036;-79
2022/12/18 12:09:48;;;;;;;27.40;10.40;;;4.20;99.90;;;;;;5083488;28;20048;-79
2022/12/18 12:12:45;;;;;;;34.22;11.20;;;4.20;99.90;;;;;;5074620;28;20396;-82
2022/12/18 12:15:20;;;;;;;21.15;10.93;;;4.20;99.90;;;;;;5089829;28;20387;-76
2022/12/18 12:18:27;;;;;;;19.38;10.35;;;4.30;99.90;;;;;;5083825;28;20039;-78
2022/12/18 12:21:04;;;;;;;22.05;9.88;;;4.30;99.90;;;;;;5071774;28;20170;-82
2022/12/18 12:24:14;;;;;;;26.52;10.38;;;4.30;99.90;;;;;;5081419;28;20019;-79
2022/12/18 12:27:08;;;;;;;29.35;10.75;;;4.30;99.90;;;;;;4999740;28;20038;-79
2022/12/18 12:29:50;;;;;;;20.35;9.82;;;4.30;99.90;;;;;;5013951;28;20482;-79
2022/12/18 12:32:36;;;;;;;19.05;9.85;;;4.30;99.90;;;;;;5009469;28;20065;-78
2022/12/18 12:35:28;;;;;;;17.98;10.18;;;4.30;99.90;;;;;;5006992;28;20569;-78
2022/12/18 12:38:11;;;;;;;28.87;9.80;;;4.30;99.90;;;;;;5002908;28;20037;-79
2022/12/18 12:40:47;;;;;;;22.80;8.82;;;4.30;99.90;;;;;;5010396;28;20501;-79
2022/12/18 12:43:21;;;;;;;16.65;9.48;;;4.30;99.90;;;;;;5000874;28;20054;-79
2022/12/18 12:46:05;;;;;;;24.23;9.38;;;4.30;99.90;;;;;;5001256;28;20060;-77
2022/12/18 12:48:31;;;;;;;19.70;9.30;;;4.30;99.90;;;;;;5007156;28;20045;-78
2022/12/18 12:50:58;;;;;;;23.23;9.80;;;4.20;99.90;;;;;;5007246;28;20350;-77
2022/12/18 12:53:32;;;;;;;20.80;9.15;;;4.20;99.90;;;;;;5000726;28;20038;-77
2022/12/18 12:55:58;;;;;;;24.40;10.25;;;4.10;99.90;;;;;;5010385;28;20401;-77
2022/12/18 12:58:33;;;;;;;24.52;10.18;;;4.10;99.90;;;;;;5021230;28;20025;-78
2022/12/18 13:01:23;;;;;;;19.25;9.40;;;4.10;99.90;;;;;;5046574;28;20041;-79
2022/12/18 13:03:59;;;;;;;23.85;10.07;;;4.20;99.90;;;;;;5087395;28;20776;-79
2022/12/18 13:06:39;;;;;;;22.15;10.57;;;4.20;99.90;;;;;;5088239;28;20040;-78